Accueil
METAR-TAF:

METAR-TAF

Aéroports :

Aéroport international Jinnah

Karâchi, Pakistan

latitude: 24-54N, longitude: 067-08E, altitude: 21 m

Observation

Le bulletin a été fait il y a 30 minutes, à 05:55 UTC
Vent 12 kt de sud-ouest
Température 33°C
Humidité 59%
Pression 1002 hPa
Visibilité: 6000 m
Nuages fragmentés à une hauteur de 2000 ft

METAR: OPKC 210555Z 23012KT 6000 BKN020 33/24 Q1002 NOSIG

Heure: 11:25 (06:25 UTC)

Prévision

Le bulletin a été fait il y a 2 heures et 55 minutes, à 03:30 UTC
Prévision valable du 21 à 06 UTC au 21 à 15 UTC
Vent 12 kt de ouest/sud-ouest avec des rafales jusqu'à 22 kt
Visibilité: 6000 m
Nuages épars à une hauteur de 2000 ft

TAF: OPKC 210330Z 2106/2115 24012G22KT 6000 SCT020

Observations et prévisions météorologiques de plus de 4000 aéroports (messages METAR et TAF).

Les stations disponibles sont représentées par des disques jaunes et rouges sur la carte.

Passer la souris dessus pour voir le nom de la station.

Cliquer dessus pour voir les observations et prévisions météorologiques.

Pour changer de carte: cliquez sur les boutons verts avec une croix noire pour zoomer, sur le bouton vert avec un tiret pour effectuer un zoom arrière, ou sur les flèches vertes pour les cartes adjacentes.


METAR-TAF: